YBMAYTNK

Guest
Details From YBMA - Mount Isa
To YTNK - Tennant Creek
Flight Number -
Tags generated
Created
Modified
Stats Distance 345 nm / 638 km
Max Altitude 34,000 ft / 10,363 m
Waypoints 5
Social Downloads 3
Likes 0
Share VATSIM

Download

Looking for another format? Having issues loading an existing format? Contact us
Advertisement - Login to hide

Notes

Basic altitude profile: - Ascent Rate: 2500ft/min - Ascent Speed: 250kts - Cruise Altitude: 340ft - Cruise Speed: 400kts - Descent Rate: 1500ft/min - Descent Speed: 250kts Options: - Use NATs: yes - Use PACOTS: yes - Use low airways: no - Use high airways: yes

Route

YBMA VINAX G326 TNK YTNK

ID Type Via Altitude Latitude Longitude Leg Dist Tot Dist Heading (true) Name
O YBMA APT - 0 ft / 0 m -20.66637˚ 139.48844˚ - 0 nm - Mount Isa
VINAX FIX - 34,000 ft / 10,363 m -21.58833˚ 137.89250˚ 105 nm 105 nm 238° / 239° -
BIKER FIX G326 (AWY-HI) 28,500 ft / 8,687 m -20.73222˚ 136.23389˚ 106 nm 211 nm 299° / 299° -
TNK VOR G326 (AWY-HI) 18,000 ft / 5,486 m -19.63444˚ 134.18139˚ 133 nm 344 nm 299° / 300° TENNANT CREEK VOR-DME
O YTNK APT - 0 ft / 0 m -19.63481˚ 134.18138˚ 0 nm 344 nm 181° / 181° Tennant Creek

Altitude Profile

Advertisement - Login to hide

Weather


0- 5 10 15 20 25 30 35+ Temperature / ° C

Clouds and Precipitation
Forecast for 2018-05-23 18:00 UTC. Updated 2 hours ago

Ground ~20,000 ft ~40,000 ft Winds

YBMA

Details ICAO YBMA (ISA)
Name Mount Isa
Region Australia
Timezone Australia/Brisbane (UTC+10.0)
Stats Elevation 1,121 ft / 342 m (AMSL)
Location -20.666369° 139.488443°
Runways 1
Magnetic Variation 5.671° E

METAR

YBMA 231830Z AUTO 06009KT 9999 // NCD 18/01 Q1016 RF00.0/000.0

Decode

TAF

Not found

Departure Runways

ID Width Length Bearing (true) Bearing (mag) Surface Threshold Offset Overrun Length
16 148 ft / 45 m 8,859 ft / 2,700 m 167.80° 162.13° Asphalt 210 ft / 64 m 79 ft / 24 m
34 148 ft / 45 m 8,859 ft / 2,700 m 347.80° 342.13° Asphalt 213 ft / 65 m 49 ft / 15 m

YTNK

Details ICAO YTNK (TCA)
Name Tennant Creek
Region Australia
Timezone Australia/Darwin (UTC+9.5)
Stats Elevation 1,236 ft / 377 m (AMSL)
Location -19.634808° 134.181380°
Runways 3
Magnetic Variation 4.156° E

METAR

YTNK 231800Z AUTO 12007KT 9999 // NCD 17/00 Q1018

Decode

TAF

TAF TAF YTNK 231206Z 2314/2402 12010KT CAVOK FM232300 10014KT CAVOK

Decode

Destination Runways

ID Width Length Bearing (true) Bearing (mag) Surface Threshold Offset Overrun Length
07 98 ft / 30 m 6,416 ft / 1,956 m 74.30° 70.14° Asphalt 0 ft / 0 m 0 ft / 0 m
11 59 ft / 18 m 3,456 ft / 1,053 m 119.40° 115.24° Asphalt 0 ft / 0 m 0 ft / 0 m
2 39 ft / 12 m 2,428 ft / 740 m 23.33° 19.17° Asphalt 0 ft / 0 m 0 ft / 0 m
20 39 ft / 12 m 2,428 ft / 740 m 203.33° 199.17° Asphalt 0 ft / 0 m 0 ft / 0 m
25 98 ft / 30 m 6,416 ft / 1,956 m 254.30° 250.14° Asphalt 0 ft / 0 m 0 ft / 0 m
29 59 ft / 18 m 3,456 ft / 1,053 m 299.40° 295.24° Asphalt 0 ft / 0 m 0 ft / 0 m

Popular Alternatives